Time;durP1;ratioP1;P1;durP2;ratioP2;P2;SDS_P1;SDS_P2;PMS_P1;PMS_P2;Temp;Humidity;BMP_temperature;BMP_pressure;BME280_temperature;BME280_humidity;BME280_pressure;Samples;Min_cycle;Max_cycle;Signal;HPM_P1;HPM_P2
2023/02/27 00:00:54;;;;;;;6.17;4.33;;;1.50;99.90;;;;;;4841535;29;20478;-58
2023/02/27 00:03:22;;;;;;;10.63;5.63;;;1.40;99.90;;;;;;4842148;29;20493;-59
2023/02/27 00:05:50;;;;;;;6.37;4.83;;;1.50;99.90;;;;;;4841998;29;20481;-58
2023/02/27 00:08:18;;;;;;;7.40;4.70;;;1.40;99.90;;;;;;4842236;29;20833;-58
2023/02/27 00:10:46;;;;;;;5.33;4.17;;;1.40;99.90;;;;;;4841811;29;20482;-59
2023/02/27 00:13:14;;;;;;;10.47;5.00;;;1.40;99.90;;;;;;4841878;29;20850;-59
2023/02/27 00:15:47;;;;;;;7.63;4.37;;;1.10;99.90;;;;;;4841663;29;20489;-58
2023/02/27 00:18:15;;;;;;;6.07;4.47;;;1.20;99.90;;;;;;4844449;29;20528;-58
2023/02/27 00:20:43;;;;;;;5.83;3.83;;;1.30;99.90;;;;;;4849058;29;20468;-58
2023/02/27 00:23:11;;;;;;;7.43;3.97;;;1.40;99.90;;;;;;4849598;29;20482;-59
2023/02/27 00:25:39;;;;;;;5.27;3.80;;;1.40;99.90;;;;;;4856679;29;20476;-58
2023/02/27 00:28:07;;;;;;;7.37;4.93;;;1.30;99.90;;;;;;4843683;29;20474;-59
2023/02/27 00:30:35;;;;;;;7.40;4.27;;;1.20;99.90;;;;;;4844607;29;20504;-58
2023/02/27 00:33:05;;;;;;;8.00;4.10;;;1.40;99.90;;;;;;4843999;29;20497;-59
2023/02/27 00:35:33;;;;;;;6.33;4.60;;;1.30;99.90;;;;;;4845042;29;20484;-59
2023/02/27 00:38:01;;;;;;;5.93;3.77;;;1.30;99.90;;;;;;4845377;29;20476;-58
2023/02/27 00:40:29;;;;;;;9.40;4.27;;;1.30;99.90;;;;;;4845417;29;20477;-58
2023/02/27 00:42:58;;;;;;;5.53;4.23;;;1.20;99.90;;;;;;4845115;29;20981;-59
2023/02/27 00:45:26;;;;;;;6.40;4.73;;;1.20;99.90;;;;;;4844990;29;20481;-59
2023/02/27 00:47:54;;;;;;;6.53;3.90;;;1.30;99.90;;;;;;4845027;29;20488;-58
2023/02/27 00:50:23;;;;;;;7.63;4.60;;;1.40;99.90;;;;;;4849208;29;20485;-58
2023/02/27 00:52:52;;;;;;;5.33;4.30;;;1.30;99.90;;;;;;4846868;29;21107;-58
2023/02/27 00:55:21;;;;;;;7.13;4.50;;;1.20;99.90;;;;;;4857907;29;20471;-58
2023/02/27 00:57:49;;;;;;;8.40;4.87;;;1.10;99.90;;;;;;4845172;29;20465;-58
2023/02/27 01:00:18;;;;;;;5.50;4.43;;;1.00;99.90;;;;;;4843025;29;20475;-58
2023/02/27 01:02:46;;;;;;;5.03;3.93;;;1.00;99.90;;;;;;4844997;29;20473;-58
2023/02/27 01:05:14;;;;;;;8.37;5.27;;;1.10;99.90;;;;;;4843925;29;21012;-58
2023/02/27 01:07:44;;;;;;;5.70;4.47;;;1.10;99.90;;;;;;4844611;29;20954;-59
2023/02/27 01:10:13;;;;;;;5.40;3.93;;;1.20;99.90;;;;;;4844864;29;20468;-59
2023/02/27 01:12:41;;;;;;;5.93;5.00;;;1.20;99.90;;;;;;4844372;29;20503;-58
2023/02/27 01:15:11;;;;;;;8.47;4.17;;;1.00;99.90;;;;;;4843322;29;20484;-59
2023/02/27 01:17:39;;;;;;;8.53;4.80;;;0.80;99.90;;;;;;4844372;29;20470;-58
2023/02/27 01:20:09;;;;;;;6.77;4.13;;;0.90;99.90;;;;;;4848199;29;20475;-58
2023/02/27 01:22:37;;;;;;;5.20;3.90;;;0.90;99.90;;;;;;4849473;29;20479;-59
2023/02/27 01:25:07;;;;;;;5.90;4.20;;;0.90;99.90;;;;;;4848344;29;20497;-58
2023/02/27 01:27:39;;;;;;;7.53;4.60;;;1.00;99.90;;;;;;4847449;29;20465;-59
2023/02/27 01:30:10;;;;;;;5.97;4.57;;;0.90;99.90;;;;;;4847794;29;20479;-59
2023/02/27 01:32:38;;;;;;;7.77;4.57;;;1.00;99.90;;;;;;4826771;29;21004;-59
2023/02/27 01:35:07;;;;;;;6.67;4.20;;;1.10;99.90;;;;;;4826236;29;20477;-58
2023/02/27 01:37:35;;;;;;;6.93;4.73;;;1.20;99.90;;;;;;4825894;29;20556;-59
2023/02/27 01:40:06;;;;;;;6.67;3.67;;;1.10;99.90;;;;;;4825585;29;20487;-59
2023/02/27 01:42:36;;;;;;;7.00;4.57;;;0.90;99.90;;;;;;4825570;29;20811;-59
2023/02/27 01:45:27;;;;;;;7.17;4.30;;;0.80;99.90;;;;;;4825599;29;20498;-58
2023/02/27 01:48:07;;;;;;;8.80;4.67;;;1.00;99.90;;;;;;4824466;29;20509;-58
2023/02/27 01:50:38;;;;;;;5.33;4.03;;;0.50;99.90;;;;;;4848763;29;20479;-58
2023/02/27 01:53:07;;;;;;;6.57;4.00;;;0.60;99.90;;;;;;4844428;29;20456;-59
2023/02/27 01:55:38;;;;;;;6.10;4.77;;;0.60;99.90;;;;;;4858389;29;20502;-59
2023/02/27 01:58:10;;;;;;;6.67;4.50;;;0.60;99.90;;;;;;4824374;29;20489;-58
2023/02/27 02:00:39;;;;;;;8.27;5.23;;;0.60;99.90;;;;;;4824979;29;20481;-58
2023/02/27 02:03:15;;;;;;;5.17;4.40;;;0.30;99.90;;;;;;4825435;29;20864;-58
2023/02/27 02:05:45;;;;;;;5.87;4.00;;;0.10;99.90;;;;;;4839260;29;20878;-59
2023/02/27 02:08:17;;;;;;;6.27;4.43;;;0.00;99.90;;;;;;4825364;29;20807;-58
2023/02/27 02:10:48;;;;;;;10.10;4.90;;;-0.10;99.90;;;;;;4825171;29;20465;-58
2023/02/27 02:13:19;;;;;;;8.53;5.43;;;0.10;99.90;;;;;;4825519;29;20489;-58
2023/02/27 02:15:52;;;;;;;8.77;5.70;;;0.20;99.90;;;;;;4825423;29;20842;-58
2023/02/27 02:18:26;;;;;;;10.20;6.07;;;-0.10;99.90;;;;;;4825525;29;20462;-58
2023/02/27 02:21:27;;;;;;;9.83;6.00;;;-0.10;99.90;;;;;;4851321;29;20984;-59
2023/02/27 02:24:44;;;;;;;10.97;6.37;;;0.10;99.90;;;;;;4854294;29;20554;-58
2023/02/27 02:27:26;;;;;;;9.30;5.80;;;0.10;99.90;;;;;;4835881;29;21011;-58
2023/02/27 02:30:33;;;;;;;10.97;6.13;;;-0.10;99.90;;;;;;4843305;29;20563;-58
2023/02/27 02:33:37;;;;;;;9.77;6.20;;;0.00;99.90;;;;;;4843347;29;20483;-59
2023/02/27 02:36:37;;;;;;;6.70;4.47;;;0.30;99.90;;;;;;4822009;29;20492;-58
2023/02/27 02:39:22;;;;;;;8.77;5.60;;;0.40;99.90;;;;;;4834168;29;20495;-58
2023/02/27 02:42:00;;;;;;;10.20;6.20;;;0.50;99.90;;;;;;4842968;29;20909;-58
2023/02/27 02:44:38;;;;;;;7.27;5.30;;;0.50;99.90;;;;;;4842471;29;20503;-58
2023/02/27 02:47:20;;;;;;;8.83;4.70;;;0.50;99.90;;;;;;4842836;29;20521;-59
2023/02/27 02:49:55;;;;;;;7.70;5.30;;;0.70;99.90;;;;;;4838838;29;20810;-58
2023/02/27 02:52:32;;;;;;;6.77;4.67;;;0.50;99.90;;;;;;4845855;29;20568;-58
2023/02/27 02:55:08;;;;;;;8.87;5.77;;;0.30;99.90;;;;;;4852855;29;20459;-58
2023/02/27 02:57:40;;;;;;;8.53;5.00;;;0.30;99.90;;;;;;4844683;29;20469;-58
2023/02/27 03:00:15;;;;;;;9.50;4.93;;;0.30;99.90;;;;;;4842659;29;20468;-59
2023/02/27 03:02:48;;;;;;;7.00;5.37;;;0.30;99.90;;;;;;4841008;29;20482;-59
2023/02/27 03:05:22;;;;;;;8.67;5.60;;;0.30;99.90;;;;;;4841429;29;20543;-59
2023/02/27 03:07:56;;;;;;;6.93;4.63;;;0.10;99.90;;;;;;4842771;29;21003;-58
2023/02/27 03:10:29;;;;;;;9.47;5.57;;;0.20;99.90;;;;;;4841318;29;20818;-57
2023/02/27 03:13:01;;;;;;;8.90;5.20;;;0.10;99.90;;;;;;4841140;29;20504;-58
2023/02/27 03:15:34;;;;;;;7.10;5.07;;;-0.10;99.90;;;;;;4841074;29;20499;-59
2023/02/27 03:18:07;;;;;;;9.33;5.30;;;-0.20;99.90;;;;;;4842474;29;20524;-59
2023/02/27 03:20:39;;;;;;;7.30;4.53;;;-0.20;99.90;;;;;;4844480;29;20475;-58
2023/02/27 03:23:21;;;;;;;6.97;5.00;;;-0.20;99.90;;;;;;4841893;29;20590;-59
2023/02/27 03:25:51;;;;;;;9.50;4.70;;;-0.40;99.90;;;;;;4856133;29;20983;-58
2023/02/27 03:28:24;;;;;;;7.93;4.90;;;-0.10;99.90;;;;;;4842310;29;20496;-58
2023/02/27 03:31:00;;;;;;;6.70;4.70;;;0.10;99.90;;;;;;4840612;29;20520;-58
2023/02/27 03:33:32;;;;;;;7.37;4.47;;;0.20;99.90;;;;;;4840774;29;20477;-59
2023/02/27 03:36:11;;;;;;;7.20;5.20;;;0.20;99.90;;;;;;4841019;29;20476;-58
2023/02/27 03:38:44;;;;;;;7.43;4.50;;;0.20;99.90;;;;;;4842053;29;20464;-58
2023/02/27 03:41:21;;;;;;;8.33;5.70;;;0.30;99.90;;;;;;4840908;29;20527;-58
2023/02/27 03:44:05;;;;;;;6.23;4.60;;;0.20;99.90;;;;;;4840946;29;20484;-59
2023/02/27 03:46:35;;;;;;;7.57;4.53;;;0.40;99.90;;;;;;4842280;29;20523;-58
2023/02/27 03:49:05;;;;;;;7.07;4.53;;;0.40;99.90;;;;;;4840747;29;20543;-58
2023/02/27 03:51:34;;;;;;;6.73;5.03;;;0.20;99.90;;;;;;4846826;29;20810;-58
2023/02/27 03:54:08;;;;;;;8.40;5.10;;;0.40;99.90;;;;;;4844130;29;20474;-58
2023/02/27 03:56:41;;;;;;;6.67;4.30;;;0.30;99.90;;;;;;4851766;29;20917;-58
2023/02/27 03:59:09;;;;;;;5.97;4.20;;;0.30;99.90;;;;;;4840861;29;20528;-58
2023/02/27 04:01:43;;;;;;;7.00;4.37;;;0.40;99.90;;;;;;4841166;29;20490;-58
2023/02/27 04:04:14;;;;;;;7.10;5.00;;;0.40;99.90;;;;;;4844608;29;20484;-58
2023/02/27 04:07:23;;;;;;;8.40;4.90;;;0.40;99.90;;;;;;4845602;29;20632;-58
2023/02/27 04:10:19;;;;;;;5.63;4.67;;;0.30;99.90;;;;;;4845597;29;20479;-58
2023/02/27 04:13:17;;;;;;;5.93;4.47;;;0.40;99.90;;;;;;4845349;29;20491;-58
2023/02/27 04:16:15;;;;;;;5.50;4.20;;;0.30;99.90;;;;;;4845697;29;20900;-58
2023/02/27 04:18:59;;;;;;;5.93;4.57;;;0.30;99.90;;;;;;4845678;29;20841;-58
2023/02/27 04:21:34;;;;;;;6.63;4.40;;;0.30;99.90;;;;;;4852741;29;20476;-59
2023/02/27 04:24:09;;;;;;;7.20;5.30;;;0.40;99.90;;;;;;4846857;29;20470;-58
2023/02/27 04:26:42;;;;;;;7.60;5.00;;;0.20;99.90;;;;;;4858453;29;20492;-58
2023/02/27 04:29:17;;;;;;;6.97;4.90;;;-0.20;99.90;;;;;;4845299;29;20484;-58
2023/02/27 04:31:51;;;;;;;7.67;4.47;;;-0.50;99.90;;;;;;4844910;29;21115;-58
2023/02/27 04:34:27;;;;;;;7.07;4.70;;;-0.50;99.90;;;;;;4845223;29;20890;-58
2023/02/27 04:37:00;;;;;;;6.73;5.50;;;-0.60;99.90;;;;;;4835117;29;20829;-58
2023/02/27 04:39:32;;;;;;;7.23;4.67;;;-0.40;99.90;;;;;;4838912;29;20563;-58
2023/02/27 04:42:03;;;;;;;7.80;5.60;;;-0.40;99.90;;;;;;4834424;29;20485;-58
2023/02/27 04:44:36;;;;;;;7.20;5.70;;;-0.20;99.90;;;;;;4836934;29;21011;-58
2023/02/27 04:47:07;;;;;;;7.00;6.00;;;-0.30;99.90;;;;;;4845282;29;20984;-58
2023/02/27 04:49:38;;;;;;;9.63;4.93;;;-0.60;99.90;;;;;;4846445;29;20480;-58
2023/02/27 04:52:12;;;;;;;6.70;4.97;;;-0.50;99.90;;;;;;4847287;29;20486;-58
2023/02/27 04:54:43;;;;;;;9.20;5.50;;;-0.70;99.90;;;;;;4855701;29;20823;-57
2023/02/27 04:57:15;;;;;;;6.33;4.73;;;-0.80;99.90;;;;;;4851257;29;20468;-58
2023/02/27 04:59:48;;;;;;;8.63;5.83;;;-0.70;99.90;;;;;;4844608;29;20478;-58
2023/02/27 05:02:23;;;;;;;6.80;5.33;;;-0.60;99.90;;;;;;4844389;29;20492;-58
2023/02/27 05:04:56;;;;;;;6.00;5.00;;;-0.40;99.90;;;;;;4845002;29;20511;-58
2023/02/27 05:07:29;;;;;;;7.50;5.13;;;-0.10;99.90;;;;;;4844473;29;20496;-57
2023/02/27 05:10:00;;;;;;;7.53;5.23;;;0.00;99.90;;;;;;4844669;29;20469;-58
2023/02/27 05:12:33;;;;;;;9.87;5.53;;;0.20;99.90;;;;;;4844382;29;20492;-58
2023/02/27 05:15:08;;;;;;;10.30;5.97;;;0.30;99.90;;;;;;4844198;29;20467;-58
2023/02/27 05:17:42;;;;;;;7.43;5.77;;;0.40;99.90;;;;;;4844301;29;20468;-58
2023/02/27 05:20:13;;;;;;;8.33;6.10;;;0.40;99.90;;;;;;4848622;29;20554;-58
2023/02/27 05:22:47;;;;;;;8.57;5.97;;;0.40;99.90;;;;;;4854454;29;20472;-58
2023/02/27 05:25:23;;;;;;;7.87;5.50;;;0.30;99.90;;;;;;4856902;29;20486;-58
2023/02/27 05:27:54;;;;;;;7.07;6.37;;;0.30;99.90;;;;;;4846056;29;20485;-58
2023/02/27 05:30:31;;;;;;;7.80;6.43;;;0.40;99.90;;;;;;4843850;29;20483;-58
2023/02/27 05:33:05;;;;;;;8.00;5.67;;;0.40;99.90;;;;;;4844233;29;20546;-58
2023/02/27 05:35:38;;;;;;;7.83;6.53;;;0.20;99.90;;;;;;4844231;29;20999;-58
2023/02/27 05:38:11;;;;;;;7.77;5.93;;;0.10;99.90;;;;;;4844370;29;20537;-58
2023/02/27 05:40:43;;;;;;;9.30;5.77;;;0.30;99.90;;;;;;4843941;29;20477;-58
2023/02/27 05:43:16;;;;;;;9.57;5.97;;;0.20;99.90;;;;;;4844388;29;20496;-58
2023/02/27 05:45:48;;;;;;;9.57;6.40;;;0.20;99.90;;;;;;4843994;29;20480;-58
2023/02/27 05:48:21;;;;;;;9.87;7.43;;;0.30;99.90;;;;;;4844180;29;20479;-58
2023/02/27 05:50:52;;;;;;;13.13;6.87;;;0.30;99.90;;;;;;4850952;29;20535;-58
2023/02/27 05:53:24;;;;;;;12.30;8.23;;;0.50;99.90;;;;;;4843439;29;20568;-58
2023/02/27 05:55:55;;;;;;;11.67;8.47;;;0.80;99.90;;;;;;4858160;29;20507;-58
2023/02/27 05:58:27;;;;;;;9.97;7.03;;;0.40;99.90;;;;;;4861669;29;20483;-58
2023/02/27 06:01:01;;;;;;;10.57;6.67;;;-0.20;99.90;;;;;;4863210;29;21021;-58
2023/02/27 06:03:32;;;;;;;9.80;6.70;;;0.00;99.90;;;;;;4866005;29;20490;-58
2023/02/27 06:06:02;;;;;;;10.23;6.90;;;-0.10;99.90;;;;;;4841602;29;20481;-59
2023/02/27 06:08:30;;;;;;;8.13;5.63;;;-0.10;99.90;;;;;;4825969;29;20481;-58
2023/02/27 06:10:58;;;;;;;9.53;6.17;;;0.10;99.90;;;;;;4825857;29;20893;-58
2023/02/27 06:13:26;;;;;;;12.17;6.90;;;0.20;99.90;;;;;;4825205;29;21009;-58
2023/02/27 06:15:55;;;;;;;9.80;6.93;;;0.40;99.90;;;;;;4832815;29;20489;-58
2023/02/27 06:18:24;;;;;;;11.47;7.13;;;0.30;99.90;;;;;;4834281;29;20473;-58
2023/02/27 06:20:52;;;;;;;12.27;7.47;;;0.20;99.90;;;;;;4835566;29;20469;-59
2023/02/27 06:23:20;;;;;;;17.17;7.57;;;0.40;99.90;;;;;;4841248;29;20859;-58
2023/02/27 06:25:49;;;;;;;12.63;8.53;;;0.70;99.90;;;;;;4849619;29;20484;-58
2023/02/27 06:28:17;;;;;;;12.27;7.30;;;0.50;99.90;;;;;;4850953;29;20556;-58
2023/02/27 06:30:45;;;;;;;13.37;7.47;;;0.50;99.90;;;;;;4841381;29;20473;-58
2023/02/27 06:33:13;;;;;;;11.73;8.10;;;0.50;99.90;;;;;;4847547;29;20576;-58
2023/02/27 06:35:43;;;;;;;12.63;8.00;;;0.50;99.90;;;;;;4843396;29;20536;-58
2023/02/27 06:38:12;;;;;;;13.97;8.33;;;0.60;99.90;;;;;;4844553;29;20484;-58
2023/02/27 06:40:40;;;;;;;12.67;8.50;;;0.60;99.90;;;;;;4845696;29;20918;-58
2023/02/27 06:43:08;;;;;;;13.63;9.97;;;0.50;99.90;;;;;;4843106;29;20836;-58
2023/02/27 06:45:36;;;;;;;12.23;9.20;;;0.30;99.90;;;;;;4848257;29;20993;-58
2023/02/27 06:48:05;;;;;;;12.63;8.40;;;0.00;99.90;;;;;;4842352;29;21057;-57
2023/02/27 06:50:33;;;;;;;10.47;7.80;;;-0.40;99.90;;;;;;4844852;29;20917;-58
2023/02/27 06:53:03;;;;;;;10.40;7.53;;;0.00;99.90;;;;;;4854915;29;20473;-58
2023/02/27 06:55:31;;;;;;;11.63;8.50;;;0.00;99.90;;;;;;4841427;29;20904;-58
2023/02/27 06:57:59;;;;;;;14.20;8.30;;;-0.20;99.90;;;;;;4840343;29;20472;-58
2023/02/27 07:00:28;;;;;;;11.37;7.50;;;-0.30;99.90;;;;;;4838757;29;20848;-58
2023/02/27 07:02:56;;;;;;;11.27;7.50;;;-0.30;99.90;;;;;;4840576;29;20488;-58
2023/02/27 07:05:24;;;;;;;9.43;6.83;;;-0.40;99.90;;;;;;4841127;29;20988;-58
2023/02/27 07:07:53;;;;;;;12.40;6.50;;;-0.40;99.90;;;;;;4842512;29;21018;-58
2023/02/27 07:10:22;;;;;;;11.37;7.30;;;-0.30;99.90;;;;;;4843094;29;20487;-58
2023/02/27 07:12:50;;;;;;;12.40;6.87;;;-0.20;99.90;;;;;;4843635;29;20579;-58
2023/02/27 07:15:19;;;;;;;10.73;6.93;;;-0.20;99.90;;;;;;4848101;29;20528;-58
2023/02/27 07:17:47;;;;;;;10.77;6.97;;;-0.10;99.90;;;;;;4842477;29;21013;-58
2023/02/27 07:20:15;;;;;;;10.37;7.07;;;0.00;99.90;;;;;;4848792;29;20467;-58
2023/02/27 07:22:43;;;;;;;11.53;7.40;;;0.10;99.90;;;;;;4849246;29;20999;-58
2023/02/27 07:25:11;;;;;;;10.23;7.67;;;0.20;99.90;;;;;;4841010;29;20488;-58
2023/02/27 07:27:43;;;;;;;10.37;7.63;;;0.40;99.90;;;;;;4841426;29;20988;-58
2023/02/27 07:30:12;;;;;;;9.33;7.80;;;0.40;99.90;;;;;;4839314;29;20477;-58
2023/02/27 07:32:40;;;;;;;10.50;7.67;;;0.50;99.90;;;;;;4842721;29;20476;-58
2023/02/27 07:35:10;;;;;;;12.27;7.83;;;0.50;99.90;;;;;;4847713;29;20519;-58
2023/02/27 07:37:39;;;;;;;13.43;8.27;;;0.80;99.90;;;;;;4840644;29;20829;-58
2023/02/27 07:40:08;;;;;;;8.87;7.23;;;0.90;99.90;;;;;;4843316;29;20471;-58
2023/02/27 07:42:36;;;;;;;10.50;7.77;;;1.10;99.90;;;;;;4839338;29;20871;-57
2023/02/27 07:45:07;;;;;;;11.10;8.07;;;1.20;99.90;;;;;;4837547;29;20508;-57
2023/02/27 07:47:35;;;;;;;11.50;8.30;;;1.30;99.90;;;;;;4839549;29;20520;-57
2023/02/27 07:50:04;;;;;;;13.40;8.10;;;1.50;99.90;;;;;;4845073;29;20524;-57
2023/02/27 07:52:33;;;;;;;16.03;8.50;;;1.70;99.90;;;;;;4841039;29;20473;-59
2023/02/27 07:55:01;;;;;;;12.13;8.07;;;1.70;99.90;;;;;;4840238;29;20569;-57
2023/02/27 07:57:29;;;;;;;16.83;8.63;;;1.90;99.90;;;;;;4841301;29;20972;-58
2023/02/27 07:59:57;;;;;;;9.93;7.47;;;2.10;99.90;;;;;;4843712;29;20496;-58
2023/02/27 08:02:26;;;;;;;9.70;6.83;;;2.20;99.90;;;;;;4840540;29;20478;-57
2023/02/27 08:04:54;;;;;;;13.60;6.50;;;2.30;99.90;;;;;;4839764;29;20477;-58
2023/02/27 08:07:22;;;;;;;10.73;7.17;;;2.40;99.90;;;;;;4841153;29;21006;-58
2023/02/27 08:09:50;;;;;;;8.50;6.13;;;2.50;99.90;;;;;;4846577;29;20484;-58
2023/02/27 08:12:19;;;;;;;9.50;6.00;;;2.60;99.90;;;;;;4841811;29;20489;-58
2023/02/27 08:14:47;;;;;;;8.53;5.60;;;2.70;99.90;;;;;;4842017;29;20514;-58
2023/02/27 08:17:15;;;;;;;8.10;5.60;;;2.90;99.90;;;;;;4841900;29;20474;-58
2023/02/27 08:19:44;;;;;;;7.33;5.20;;;3.00;99.90;;;;;;4842745;29;20988;-58
2023/02/27 08:22:12;;;;;;;6.77;5.10;;;3.10;99.90;;;;;;4844211;29;21083;-58
2023/02/27 08:24:41;;;;;;;7.87;5.33;;;3.30;99.90;;;;;;4852456;29;20479;-58
2023/02/27 08:27:09;;;;;;;5.60;5.00;;;3.40;99.90;;;;;;4860172;29;20478;-58
2023/02/27 08:29:37;;;;;;;10.10;4.80;;;3.60;99.90;;;;;;4859454;29;20476;-58
2023/02/27 08:32:05;;;;;;;7.80;5.00;;;3.60;99.90;;;;;;4844100;29;20499;-58
2023/02/27 08:34:33;;;;;;;9.77;5.20;;;3.60;99.90;;;;;;4841895;29;21051;-58
2023/02/27 08:37:02;;;;;;;7.90;4.83;;;3.70;99.90;;;;;;4841996;29;20477;-58
2023/02/27 08:39:30;;;;;;;8.07;5.27;;;3.90;99.90;;;;;;4841626;29;20824;-58
2023/02/27 08:41:58;;;;;;;9.37;4.90;;;4.00;99.90;;;;;;4841981;29;20972;-58
2023/02/27 08:44:26;;;;;;;5.83;4.57;;;4.00;99.90;;;;;;4841499;29;20479;-58
2023/02/27 08:46:54;;;;;;;8.17;4.90;;;4.20;99.90;;;;;;4841513;29;20486;-58
2023/02/27 08:49:24;;;;;;;10.00;5.00;;;4.20;99.90;;;;;;4843659;29;20500;-58
2023/02/27 08:51:52;;;;;;;8.73;4.73;;;4.40;99.90;;;;;;4855952;29;20547;-58
2023/02/27 08:54:22;;;;;;;11.60;5.13;;;4.60;99.90;;;;;;4842067;29;20840;-58
2023/02/27 08:56:50;;;;;;;9.50;4.13;;;4.60;99.90;;;;;;4845027;29;20475;-58
2023/02/27 08:59:18;;;;;;;7.17;4.37;;;4.70;99.90;;;;;;4845241;29;20483;-58
2023/02/27 09:01:46;;;;;;;6.47;4.07;;;5.00;99.90;;;;;;4844456;29;20489;-59
2023/02/27 09:04:15;;;;;;;6.70;4.10;;;5.40;99.90;;;;;;4840597;29;20535;-57
2023/02/27 09:06:43;;;;;;;6.63;3.87;;;5.70;99.90;;;;;;4844367;29;20472;-58
2023/02/27 09:09:11;;;;;;;8.80;3.80;;;5.90;99.90;;;;;;4844816;29;20501;-58
2023/02/27 09:11:40;;;;;;;8.17;4.07;;;6.00;99.90;;;;;;4844908;29;20987;-58
2023/02/27 09:14:08;;;;;;;6.23;3.33;;;5.90;99.90;;;;;;4844685;29;20251;-58
2023/02/27 09:16:36;;;;;;;6.00;3.60;;;6.10;99.90;;;;;;4844705;29;20313;-58
2023/02/27 09:19:05;;;;;;;8.60;4.00;;;6.20;99.90;;;;;;4851149;29;20230;-58
2023/02/27 09:21:33;;;;;;;6.17;3.47;;;6.30;99.90;;;;;;4848939;29;20490;-58
2023/02/27 09:24:01;;;;;;;6.03;3.53;;;6.40;99.90;;;;;;4862937;29;20483;-58
2023/02/27 09:26:47;;;;;;;8.00;3.50;;;6.40;99.90;;;;;;4862793;29;20237;-58
2023/02/27 09:29:16;;;;;;;5.40;3.57;;;6.80;99.90;;;;;;4862800;29;20254;-58
2023/02/27 09:31:44;;;;;;;7.80;3.80;;;6.90;99.90;;;;;;4845550;29;20243;-58
2023/02/27 09:34:12;;;;;;;6.37;3.50;;;7.20;99.90;;;;;;4844731;29;20603;-58
2023/02/27 09:36:40;;;;;;;4.37;3.10;;;7.20;99.90;;;;;;4844132;29;20245;-58
2023/02/27 09:39:10;;;;;;;5.83;3.37;;;7.40;99.90;;;;;;4847877;29;20318;-58
2023/02/27 09:41:51;;;;;;;6.73;3.90;;;7.40;99.90;;;;;;4862616;29;20241;-58
2023/02/27 09:44:29;;;;;;;7.13;3.97;;;7.50;99.90;;;;;;4862643;29;20235;-58
2023/02/27 09:47:16;;;;;;;5.80;3.17;;;7.80;99.90;;;;;;4855197;29;20303;-58
2023/02/27 09:49:54;;;;;;;8.10;3.83;;;8.30;99.90;;;;;;4846456;29;20238;-58
2023/02/27 09:52:22;;;;;;;5.87;3.37;;;8.40;99.90;;;;;;4855121;29;20249;-58
2023/02/27 09:54:50;;;;;;;6.70;3.63;;;8.30;99.90;;;;;;4854625;29;20241;-58
2023/02/27 09:57:29;;;;;;;5.67;3.97;;;8.40;99.90;;;;;;4862680;29;20695;-58
2023/02/27 10:00:03;;;;;;;5.87;2.70;;;8.60;99.90;;;;;;4862351;29;20248;-58
2023/02/27 10:02:54;;;;;;;5.47;2.50;;;8.30;99.90;;;;;;4844938;29;20239;-58
2023/02/27 10:05:30;;;;;;;6.97;2.57;;;8.10;99.90;;;;;;4843798;29;20235;-58
2023/02/27 10:08:08;;;;;;;6.17;2.60;;;8.10;99.90;;;;;;4844161;29;20262;-58
2023/02/27 10:10:43;;;;;;;5.17;2.23;;;8.10;99.90;;;;;;4841015;29;20248;-58
2023/02/27 10:13:36;;;;;;;4.03;2.20;;;8.00;99.90;;;;;;4825487;29;20251;-58
2023/02/27 10:16:06;;;;;;;6.27;2.50;;;8.20;99.90;;;;;;4825441;29;20236;-58
2023/02/27 10:18:41;;;;;;;6.30;2.40;;;8.40;99.90;;;;;;4825606;29;20248;-58
2023/02/27 10:21:16;;;;;;;4.37;2.23;;;8.70;99.90;;;;;;4850571;29;20226;-58
2023/02/27 10:23:53;;;;;;;6.10;2.47;;;8.90;99.90;;;;;;4858701;29;20636;-58
2023/02/27 10:26:25;;;;;;;4.07;2.10;;;8.90;99.90;;;;;;4850911;29;20266;-58
2023/02/27 10:28:54;;;;;;;3.87;2.10;;;9.10;99.90;;;;;;4843268;29;20245;-58
2023/02/27 10:31:25;;;;;;;5.87;2.70;;;9.20;99.90;;;;;;4843133;29;20254;-58
2023/02/27 10:33:56;;;;;;;4.30;2.23;;;9.20;99.90;;;;;;4843720;29;20236;-58
2023/02/27 10:36:25;;;;;;;5.77;2.00;;;9.40;99.90;;;;;;4843577;29;20231;-58
2023/02/27 10:39:05;;;;;;;5.87;2.10;;;9.40;99.90;;;;;;4845851;29;20238;-59
2023/02/27 10:41:36;;;;;;;3.83;2.17;;;9.60;99.90;;;;;;4852488;29;20321;-58
2023/02/27 10:44:05;;;;;;;3.77;2.20;;;9.80;99.90;;;;;;4851170;29;20231;-58
2023/02/27 10:46:36;;;;;;;5.93;2.23;;;9.90;99.90;;;;;;4843056;29;20243;-59
2023/02/27 10:49:13;;;;;;;5.83;1.93;;;9.30;99.90;;;;;;4843301;29;20240;-59
2023/02/27 10:51:45;;;;;;;5.03;1.93;;;9.00;99.90;;;;;;4845801;29;20227;-58
2023/02/27 10:54:16;;;;;;;5.13;2.07;;;8.90;99.90;;;;;;4853627;29;20715;-59
2023/02/27 10:56:47;;;;;;;5.77;2.27;;;8.70;99.90;;;;;;4845530;29;20727;-59
2023/02/27 10:59:21;;;;;;;8.20;2.53;;;8.50;99.90;;;;;;4843463;29;20232;-59
2023/02/27 11:01:51;;;;;;;4.47;1.63;;;8.40;99.90;;;;;;4839536;29;20263;-58
2023/02/27 11:04:31;;;;;;;5.60;2.13;;;8.20;99.90;;;;;;4825023;29;20313;-59
2023/02/27 11:07:02;;;;;;;3.87;2.00;;;8.10;99.90;;;;;;4825113;29;20271;-58
2023/02/27 11:09:32;;;;;;;4.23;2.10;;;8.20;99.90;;;;;;4843999;29;20711;-59
2023/02/27 11:12:20;;;;;;;5.57;2.60;;;8.20;99.90;;;;;;4844469;29;20696;-58
2023/02/27 11:14:52;;;;;;;3.77;1.90;;;8.00;99.90;;;;;;4843936;29;20700;-58
2023/02/27 11:17:27;;;;;;;4.30;2.23;;;8.00;99.90;;;;;;4851436;29;20650;-58
2023/02/27 11:19:56;;;;;;;4.50;2.10;;;8.00;99.90;;;;;;4861732;29;20714;-58
2023/02/27 11:22:27;;;;;;;6.13;2.27;;;8.00;99.90;;;;;;4854664;29;20568;-59
2023/02/27 11:25:17;;;;;;;6.13;2.50;;;8.20;99.90;;;;;;4854486;29;20232;-59
2023/02/27 11:27:46;;;;;;;4.33;2.13;;;8.10;99.90;;;;;;4855527;29;20266;-58
2023/02/27 11:30:25;;;;;;;4.43;2.27;;;8.00;99.90;;;;;;4837130;29;20594;-59
2023/02/27 11:32:56;;;;;;;6.23;2.27;;;8.10;99.90;;;;;;4834653;29;20637;-59
2023/02/27 11:35:26;;;;;;;5.30;2.43;;;8.20;99.90;;;;;;4837309;29;20306;-59
2023/02/27 11:37:56;;;;;;;4.53;2.57;;;8.30;99.90;;;;;;4837651;29;20237;-59
2023/02/27 11:40:30;;;;;;;5.50;2.77;;;8.30;99.90;;;;;;4833021;29;20243;-59
2023/02/27 11:43:03;;;;;;;5.77;2.63;;;8.40;99.90;;;;;;4834848;29;20322;-58
2023/02/27 11:45:35;;;;;;;6.37;2.60;;;8.40;99.90;;;;;;4837153;29;20231;-59
2023/02/27 11:48:27;;;;;;;4.97;2.90;;;8.30;99.90;;;;;;4836329;29;20235;-59
2023/02/27 11:51:16;;;;;;;7.03;2.63;;;8.20;99.90;;;;;;4832562;29;20243;-58
2023/02/27 11:54:10;;;;;;;6.17;2.77;;;7.90;99.90;;;;;;4836618;29;20625;-59
2023/02/27 11:56:43;;;;;;;5.97;2.60;;;8.00;99.90;;;;;;4836528;29;20247;-58
2023/02/27 11:59:26;;;;;;;7.23;2.57;;;8.10;99.90;;;;;;4837444;29;20235;-59
2023/02/27 12:02:03;;;;;;;5.37;2.57;;;8.30;99.90;;;;;;4836394;29;20303;-59
2023/02/27 12:04:43;;;;;;;3.97;2.63;;;8.40;99.90;;;;;;4834290;29;20247;-58
2023/02/27 12:07:19;;;;;;;5.03;2.70;;;8.30;99.90;;;;;;4829565;29;20239;-58
2023/02/27 12:09:56;;;;;;;6.90;3.00;;;8.30;99.90;;;;;;4840563;29;20238;-59
2023/02/27 12:12:28;;;;;;;5.20;2.73;;;8.30;99.90;;;;;;4836654;29;20617;-58
2023/02/27 12:15:04;;;;;;;5.60;2.23;;;8.20;99.90;;;;;;4824620;29;20240;-59
2023/02/27 12:17:40;;;;;;;6.07;2.30;;;8.10;99.90;;;;;;4823993;29;20235;-59
2023/02/27 12:20:25;;;;;;;6.20;2.70;;;8.10;99.90;;;;;;4828272;29;20233;-58
2023/02/27 12:22:54;;;;;;;6.30;2.33;;;8.10;99.90;;;;;;4828442;29;20588;-59
2023/02/27 12:25:41;;;;;;;6.30;2.40;;;8.20;99.90;;;;;;4839798;29;20231;-59
2023/02/27 12:28:24;;;;;;;8.07;2.50;;;8.10;99.90;;;;;;4814638;29;20239;-59
2023/02/27 12:31:04;;;;;;;4.73;2.80;;;8.00;99.90;;;;;;4831559;29;20729;-59
2023/02/27 12:33:38;;;;;;;4.87;2.37;;;8.00;99.90;;;;;;4845368;29;20239;-59
2023/02/27 12:36:11;;;;;;;8.63;2.73;;;8.10;99.90;;;;;;4838481;29;20591;-58
2023/02/27 12:38:39;;;;;;;6.70;2.30;;;7.80;99.90;;;;;;4845068;29;20235;-58
2023/02/27 12:41:27;;;;;;;6.07;2.40;;;7.90;99.90;;;;;;4864244;29;20252;-58
2023/02/27 12:44:10;;;;;;;4.60;2.20;;;8.00;99.90;;;;;;4848977;29;20422;-58
2023/02/27 12:46:48;;;;;;;4.03;1.70;;;8.00;99.90;;;;;;4855089;29;20317;-58
2023/02/27 12:49:28;;;;;;;3.43;1.70;;;7.90;99.90;;;;;;4859954;29;20223;-58
2023/02/27 12:52:09;;;;;;;4.47;1.97;;;7.80;99.90;;;;;;4852912;29;20227;-58
2023/02/27 12:54:46;;;;;;;3.00;1.70;;;7.50;99.90;;;;;;4844789;29;20700;-58
2023/02/27 12:57:31;;;;;;;4.90;1.30;;;7.50;99.90;;;;;;4832906;29;20284;-58
2023/02/27 13:00:18;;;;;;;3.27;1.57;;;7.40;99.90;;;;;;4841397;29;20238;-58
2023/02/27 13:02:54;;;;;;;4.97;1.70;;;7.40;99.90;;;;;;4844229;29;20251;-58
2023/02/27 13:05:42;;;;;;;3.77;1.60;;;7.40;99.90;;;;;;4862545;29;20230;-58
2023/02/27 13:08:38;;;;;;;3.83;2.03;;;7.40;99.90;;;;;;4845785;29;20251;-58
2023/02/27 13:11:20;;;;;;;5.03;2.00;;;7.40;99.90;;;;;;4837916;29;20244;-58
2023/02/27 13:13:53;;;;;;;3.37;1.50;;;7.40;99.90;;;;;;4844265;29;21031;-59
2023/02/27 13:16:24;;;;;;;5.13;1.93;;;7.50;99.90;;;;;;4838847;29;20235;-58
2023/02/27 13:18:56;;;;;;;5.17;1.60;;;7.50;99.90;;;;;;4836574;29;20208;-58
2023/02/27 13:21:32;;;;;;;4.67;1.70;;;7.60;99.90;;;;;;4838978;29;20243;-58
2023/02/27 13:24:16;;;;;;;3.10;1.70;;;7.50;99.90;;;;;;4852497;29;20242;-59